Thunder radar more information blitzortung!


Löydät sääaseman tiedot myös:

European Weather Network

Finland Weather Exchange

Weather Underground

AWEKAS



Weather Underground säähistoriasivu

Päivittäin yhteenveto Maaliskuu 13, 2017 Yksiköt:  Englantilaiset    Metriset   Molemmat
« Edellinen Päivä
Seuraava Päivä »
Päivittäin Viikoittain Kuukausittain Vuosittain Mukautettu
  Korkea: Matala: Keskiarvo:
Lämpötila: TemperatureC °F -0.6 °F 1.8 °F
Kastepiste: DewpointC °F -2.0 °F -0.2 °F
Kosteus: Humidity % 69 % 87 %
Tuulen nopeus: WindSpeedKMH mph 0.0 mph 6.3 mph
Tuulenpuuska: WindSpeedGustKMH mph - -
Tuuli:- - SSW
Ilmanpaine: PressurehPa in 1014.8 in -
Sade: 0.0 in    
Historical Graphs
 
 
Taulukkotiedot Maaliskuu 13, 2017
Aika Lämpötila Kastepiste Ilmanpaine Tuuli Tuulen nopeus Tuulenpuuska Kosteus Sademäärä (tunneittain)
TemperatureC °F DewpointC °F PressurehPa in Calm     Humidity % HourlyPrecipMM in
00:00 0.1 °F -0.5 °F 1017.8 in SSW 4.8 mph 9.7 mph 96 % 0.0 in
00:15 0.1 °F -0.5 °F 1018.2 in SSW 3.2 mph 8.0 mph 96 % 0.0 in
00:30 -0.1 °F -0.6 °F 1018.2 in Calm   3.2 mph 96 % 0.0 in
00:45 -0.2 °F -0.7 °F 1018.2 in SSW 1.6 mph 6.4 mph 96 % 0.0 in
01:00 -0.2 °F -0.8 °F 1018.2 in SSW 3.2 mph 8.0 mph 96 % 0.0 in
01:15 -0.2 °F -0.8 °F 1018.2 in Calm   4.8 mph 96 % 0.0 in
01:30 -0.2 °F -0.8 °F 1018.2 in Calm   6.4 mph 96 % 0.0 in
01:45 -0.3 °F -0.8 °F 1018.2 in Calm   4.8 mph 96 % 0.0 in
02:00 -0.2 °F -0.7 °F 1018.2 in SSW 1.6 mph 8.0 mph 96 % 0.0 in
02:15 -0.1 °F -0.7 °F 1018.2 in SSW 6.4 mph 12.9 mph 96 % 0.0 in
02:30 -0.2 °F -0.7 °F 1018.5 in SSW 6.4 mph 19.3 mph 96 % 0.0 in
02:45 -0.2 °F -0.8 °F 1018.5 in SSW 3.2 mph 9.7 mph 96 % 0.0 in
03:00 -0.2 °F -0.6 °F 1018.5 in SSW 4.8 mph 9.7 mph 97 % 0.0 in
03:15 -0.2 °F -0.6 °F 1018.5 in SSW 3.2 mph 9.7 mph 97 % 0.0 in
03:30 -0.2 °F -0.6 °F 1018.5 in SSW 4.8 mph 11.3 mph 97 % 0.0 in
03:45 -0.1 °F -0.5 °F 1018.5 in SW 3.2 mph 8.0 mph 97 % 0.0 in
04:00 -0.1 °F -0.5 °F 1018.5 in SSW 4.8 mph 11.3 mph 97 % 0.0 in
04:15 -0.1 °F -0.5 °F 1018.5 in SSW 3.2 mph 8.0 mph 97 % 0.0 in
04:30 0.0 °F -0.4 °F 1018.5 in SSW 4.8 mph 11.3 mph 97 % 0.0 in
04:45 0.1 °F -0.4 °F 1018.5 in SSW 3.2 mph 8.0 mph 97 % 0.0 in
05:00 0.1 °F -0.4 °F 1018.5 in SSW 4.8 mph 12.9 mph 97 % 0.0 in
05:15 0.1 °F -0.4 °F 1018.5 in SSW 4.8 mph 11.3 mph 97 % 0.0 in
05:30 0.0 °F -0.4 °F 1018.5 in SSW 4.8 mph 12.9 mph 97 % 0.0 in
05:45 -0.1 °F -0.5 °F 1018.5 in SSW 4.8 mph 11.3 mph 97 % 0.0 in
06:00 -0.2 °F -0.6 °F 1018.5 in SSW 3.2 mph 9.7 mph 97 % 0.0 in
06:15 -0.3 °F -0.7 °F 1018.5 in SSW 4.8 mph 12.9 mph 97 % 0.0 in
06:30 -0.3 °F -0.8 °F 1018.5 in SSW 3.2 mph 9.7 mph 97 % 0.0 in
06:45 -0.4 °F -0.9 °F 1018.5 in SSW 4.8 mph 14.5 mph 97 % 0.0 in
07:00 -0.6 °F -1.0 °F 1018.8 in SSW 6.4 mph 12.9 mph 97 % 0.0 in
07:15 -0.5 °F -0.9 °F 1018.8 in SSW 3.2 mph 9.7 mph 97 % 0.0 in
07:30 -0.6 °F -1.0 °F 1018.8 in SSW 4.8 mph 9.7 mph 97 % 0.0 in
07:45 -0.6 °F -1.0 °F 1018.8 in SSW 6.4 mph 12.9 mph 97 % 0.0 in
08:00 -0.4 °F -0.9 °F 1018.8 in SSW 4.8 mph 11.3 mph 97 % 0.0 in
08:15 -0.4 °F -0.9 °F 1018.8 in SSW 4.8 mph 11.3 mph 97 % 0.0 in
08:30 -0.4 °F -0.7 °F 1018.8 in SSW 4.8 mph 9.7 mph 98 % 0.0 in
08:45 -0.4 °F -0.8 °F 1018.5 in SSW 4.8 mph 11.3 mph 97 % 0.0 in
09:00 -0.3 °F -0.8 °F 1018.5 in SSW 4.8 mph 14.5 mph 97 % 0.0 in
09:15 -0.2 °F -0.5 °F 1018.5 in SSW 4.8 mph 12.9 mph 98 % 0.0 in
09:30 -0.1 °F -0.5 °F 1018.8 in SSW 4.8 mph 11.3 mph 97 % 0.0 in
09:45 0.1 °F -0.2 °F 1018.5 in SSW 6.4 mph 11.3 mph 98 % 0.0 in
10:00 0.2 °F -0.1 °F 1018.5 in SSW 6.4 mph 14.5 mph 98 % 0.0 in
10:15 0.4 °F 0.1 °F 1018.5 in SSW 6.4 mph 14.5 mph 98 % 0.0 in
10:30 0.9 °F 0.6 °F 1018.5 in SSW 8.0 mph 17.7 mph 98 % 0.0 in
10:45 1.3 °F 1.1 °F 1018.8 in SSW 8.0 mph 19.3 mph 98 % 0.0 in
11:00 1.7 °F 1.4 °F 1018.5 in SSW 6.4 mph 14.5 mph 98 % 0.0 in
11:15 2.3 °F 2.1 °F 1018.5 in SSW 6.4 mph 17.7 mph 98 % 0.0 in
11:30 3.0 °F 2.4 °F 1018.5 in SSW 8.0 mph 19.3 mph 96 % 0.0 in
11:45 3.6 °F 2.5 °F 1018.5 in SSW 8.0 mph 14.5 mph 93 % 0.0 in
12:00 3.8 °F 2.5 °F 1018.5 in SSW 8.0 mph 20.9 mph 91 % 0.0 in
12:15 3.9 °F 2.5 °F 1018.5 in SSW 6.4 mph 19.3 mph 90 % 0.0 in
12:30 4.7 °F 2.7 °F 1018.5 in SSW 8.0 mph 20.9 mph 87 % 0.0 in
12:45 4.5 °F 2.4 °F 1018.5 in SSW 6.4 mph 17.7 mph 86 % 0.0 in
13:00 4.3 °F 2.1 °F 1018.5 in SSW 9.7 mph 20.9 mph 86 % 0.0 in
13:15 4.3 °F 2.2 °F 1018.2 in SSW 11.3 mph 20.9 mph 86 % 0.0 in
13:30 4.3 °F 2.0 °F 1018.2 in SSW 9.7 mph 17.7 mph 85 % 0.0 in
13:45 3.7 °F 1.8 °F 1018.2 in SSW 9.7 mph 19.3 mph 87 % 0.0 in
14:00 3.6 °F 1.8 °F 1018.2 in SSW 9.7 mph 19.3 mph 88 % 0.0 in
14:15 3.7 °F 1.9 °F 1017.8 in SSW 8.0 mph 19.3 mph 88 % 0.0 in
14:30 3.8 °F 1.9 °F 1017.8 in SSW 6.4 mph 19.3 mph 87 % 0.0 in
14:45 4.0 °F 1.9 °F 1017.5 in SSW 9.7 mph 17.7 mph 86 % 0.0 in
15:00 4.5 °F 2.2 °F 1017.2 in South 8.0 mph 19.3 mph 85 % 0.0 in
15:15 5.1 °F 2.3 °F 1017.2 in SSW 9.7 mph 20.9 mph 82 % 0.0 in
15:30 5.3 °F 1.8 °F 1017.2 in SSW 12.9 mph 24.1 mph 78 % 0.0 in
15:45 5.4 °F 1.3 °F 1016.8 in SSW 11.3 mph 22.5 mph 75 % 0.0 in
16:00 5.4 °F 0.8 °F 1016.8 in SSW 11.3 mph 22.5 mph 72 % 0.0 in
16:15 4.9 °F 0.5 °F 1016.8 in SSW 8.0 mph 17.7 mph 73 % 0.0 in
16:30 4.9 °F 0.3 °F 1016.8 in SSW 8.0 mph 22.5 mph 72 % 0.0 in
16:45 4.8 °F -0.2 °F 1016.8 in SSW 9.7 mph 20.9 mph 70 % 0.0 in
17:00 4.6 °F -0.3 °F 1016.8 in SSW 9.7 mph 25.7 mph 71 % 0.0 in
17:15 4.3 °F -0.7 °F 1016.8 in SSW 8.0 mph 20.9 mph 70 % 0.0 in
17:30 4.0 °F -1.0 °F 1016.8 in SSW 8.0 mph 20.9 mph 70 % 0.0 in
17:45 3.8 °F -1.4 °F 1016.5 in SSW 8.0 mph 16.1 mph 69 % 0.0 in
18:00 3.7 °F -1.5 °F 1016.5 in SSW 6.4 mph 12.9 mph 69 % 0.0 in
18:15 3.4 °F -1.7 °F 1016.5 in SSW 6.4 mph 16.1 mph 69 % 0.0 in
18:30 3.2 °F -1.9 °F 1016.1 in SSW 4.8 mph 12.9 mph 69 % 0.0 in
18:45 3.2 °F -1.9 °F 1016.5 in SSW 8.0 mph 14.5 mph 69 % 0.0 in
19:00 3.2 °F -2.0 °F 1016.1 in SSW 6.4 mph 19.3 mph 69 % 0.0 in
19:15 3.1 °F -1.9 °F 1016.1 in SSW 4.8 mph 12.9 mph 70 % 0.0 in
19:30 3.0 °F -1.7 °F 1016.1 in SSW 8.0 mph 16.1 mph 71 % 0.0 in
19:45 2.8 °F -1.7 °F 1016.1 in SSW 6.4 mph 19.3 mph 72 % 0.0 in
20:00 2.8 °F -1.6 °F 1015.8 in SSW 8.0 mph 16.1 mph 73 % 0.0 in
20:15 2.6 °F -1.4 °F 1015.8 in SSW 4.8 mph 12.9 mph 75 % 0.0 in
20:30 2.5 °F -1.3 °F 1015.8 in SSW 6.4 mph 14.5 mph 76 % 0.0 in
20:45 2.3 °F -1.3 °F 1015.8 in SSW 4.8 mph 14.5 mph 77 % 0.0 in
21:00 2.3 °F -1.3 °F 1015.8 in SSW 6.4 mph 19.3 mph 77 % 0.0 in
21:15 2.3 °F -1.3 °F 1015.8 in SSW 8.0 mph 12.9 mph 77 % 0.0 in
21:30 2.3 °F -1.2 °F 1015.5 in SSW 8.0 mph 14.5 mph 78 % 0.0 in
21:45 2.3 °F -1.2 °F 1015.5 in SSW 6.4 mph 19.3 mph 78 % 0.0 in
22:00 2.3 °F -1.2 °F 1015.1 in SSW 9.7 mph 19.3 mph 78 % 0.0 in
22:15 2.2 °F -1.1 °F 1015.1 in SSW 8.0 mph 20.9 mph 79 % 0.0 in
22:30 2.1 °F -1.2 °F 1015.1 in SSW 9.7 mph 17.7 mph 79 % 0.0 in
22:45 2.0 °F -1.1 °F 1015.1 in SSW 9.7 mph 22.5 mph 80 % 0.0 in
23:00 1.8 °F -1.3 °F 1015.1 in SSW 8.0 mph 20.9 mph 80 % 0.0 in
23:15 1.9 °F -1.2 °F 1015.1 in SSW 9.7 mph 25.7 mph 80 % 0.0 in
23:30 1.8 °F -1.3 °F 1015.1 in SSW 9.7 mph 29.0 mph 80 % 0.0 in
23:45 1.7 °F -1.2 °F 1014.8 in SSW 9.7 mph 22.5 mph 81 % 0.0 in
Esan sääasema
Terveisin Weather Underground - 2.75 mb

Alkuperäinen skripti  Jim McMurry - jmcmurry@mwt.net Sovitettu myös templatelle  Wim van der Kuil - Leuven-Template.eu

Laitteet joita käytämme:

Sääasema
Davis VP2

Sääasemaohjelma
Cumulus

Sääaseman tietokone
Asus EeePC

Palveluntarjoaja
Suncomet

Davis VP2

Cumulus

Asus EeePC

Suncomet